Weather at Weltzien Skypark Airport

Public forecast

Using degrees Fahrenheit for public forecast. Weather courtesy of forecast.io.

Closest aviation weather report (METAR) to Weltzien Skypark Airport

Closest report is Wayne County Airport, 10.1 nm (18.7 km) SSW. Retrieved 2020/11/26 07:56 UTC (32 minutes ago):

KBJJ 260756Z AUTO 23011KT 6SM -RA BR SCT009 BKN015 OVC021 11/10 A2981 RMK AO2 RAB27 SLP098 P0001 T01060100

Closest aviation forecast (TAF) to Weltzien Skypark Airport

Closest forecast is Akron Canton Regional Airport, 17.5 nm (32.4 km) ESE. Retrieved 2020/11/26 06:42 UTC (2 hours ago):

TAF KCAK 260539Z 2606/2706 20012G20KT 5SM -SHRA BR OVC035 FM260800 22013G20KT P6SM OVC019 FM261500 25011KT P6SM OVC015